Time;durP1;ratioP1;P1;durP2;ratioP2;P2;SDS_P1;SDS_P2;PMS_P1;PMS_P2;Temp;Humidity;BMP_temperature;BMP_pressure;BME280_temperature;BME280_humidity;BME280_pressure;Samples;Min_cycle;Max_cycle;Signal;HPM_P1;HPM_P2
2021/05/26 00:00:06;;;;;;;41.47;5.43;;;;;;;;;;3538339;40;20101;-66
2021/05/26 00:02:33;;;;;;;29.67;5.53;;;;;;;;;;3541145;40;20101;-67
2021/05/26 00:04:59;;;;;;;18.75;4.45;;;;;;;;;;3535632;40;20038;-67
2021/05/26 00:07:25;;;;;;;60.03;6.78;;;;;;;;;;3539537;40;20397;-66
2021/05/26 00:09:51;;;;;;;13.02;4.97;;;;;;;;;;3537909;40;20046;-67
2021/05/26 00:12:17;;;;;;;78.75;8.82;;;;;;;;;;3536295;40;20083;-67
2021/05/26 00:14:43;;;;;;;55.35;6.65;;;;;;;;;;3534857;40;20401;-67
2021/05/26 00:17:10;;;;;;;42.03;5.70;;;;;;;;;;3533078;40;20042;-67
2021/05/26 00:19:38;;;;;;;52.42;6.68;;;;;;;;;;3537953;40;20541;-66
2021/05/26 00:22:04;;;;;;;53.90;7.00;;;;;;;;;;3535060;40;20054;-66
2021/05/26 00:24:30;;;;;;;43.15;5.25;;;;;;;;;;3538448;40;20022;-66
2021/05/26 00:26:56;;;;;;;49.63;6.15;;;;;;;;;;3540605;40;20057;-67
2021/05/26 00:29:22;;;;;;;50.17;6.13;;;;;;;;;;3533669;40;20110;-66
2021/05/26 00:31:48;;;;;;;43.42;5.68;;;;;;;;;;3534190;40;20062;-66
2021/05/26 00:34:14;;;;;;;47.33;6.55;;;;;;;;;;3536603;40;20034;-67
2021/05/26 00:36:40;;;;;;;50.17;6.35;;;;;;;;;;3538300;40;20312;-66
2021/05/26 00:39:07;;;;;;;52.05;6.70;;;;;;;;;;3534003;40;20047;-66
2021/05/26 00:41:33;;;;;;;61.60;6.88;;;;;;;;;;3534326;40;20039;-67
2021/05/26 00:43:59;;;;;;;68.28;8.45;;;;;;;;;;3537298;40;20074;-67
2021/05/26 00:46:25;;;;;;;50.83;6.50;;;;;;;;;;3538104;40;20035;-67
2021/05/26 00:48:52;;;;;;;48.65;6.47;;;;;;;;;;3537628;40;20159;-67
2021/05/26 00:51:18;;;;;;;48.63;6.20;;;;;;;;;;3534894;40;20081;-67
2021/05/26 00:53:44;;;;;;;63.15;7.07;;;;;;;;;;3535796;40;20042;-66
2021/05/26 00:56:11;;;;;;;57.70;6.55;;;;;;;;;;3532967;40;20082;-66
2021/05/26 00:58:37;;;;;;;54.97;6.53;;;;;;;;;;3533922;40;20132;-67
2021/05/26 01:01:03;;;;;;;59.47;7.20;;;;;;;;;;3536568;40;20043;-66
2021/05/26 01:03:31;;;;;;;54.85;6.50;;;;;;;;;;3534955;40;20121;-66
2021/05/26 01:05:58;;;;;;;77.18;8.10;;;;;;;;;;3539913;40;20333;-67
2021/05/26 01:08:24;;;;;;;72.45;7.32;;;;;;;;;;3532739;40;20189;-66
2021/05/26 01:10:50;;;;;;;77.30;8.05;;;;;;;;;;3537444;40;20119;-67
2021/05/26 01:13:25;;;;;;;73.85;7.38;;;;;;;;;;3536618;40;20083;-67
2021/05/26 01:15:51;;;;;;;78.10;7.75;;;;;;;;;;3536715;40;20140;-67
2021/05/26 01:18:21;;;;;;;101.13;9.93;;;;;;;;;;3538689;40;20038;-67
2021/05/26 01:20:48;;;;;;;75.38;7.68;;;;;;;;;;3539448;40;20054;-67
2021/05/26 01:23:17;;;;;;;90.25;8.85;;;;;;;;;;3536656;40;20072;-66
2021/05/26 01:25:50;;;;;;;80.97;8.00;;;;;;;;;;3543909;40;20054;-67
2021/05/26 01:28:16;;;;;;;85.35;8.38;;;;;;;;;;3536599;40;20515;-67
2021/05/26 01:30:43;;;;;;;76.75;7.60;;;;;;;;;;3534394;40;20128;-67
2021/05/26 01:33:10;;;;;;;105.88;10.07;;;;;;;;;;3539789;40;20101;-67
2021/05/26 01:35:42;;;;;;;91.07;8.98;;;;;;;;;;3537523;40;20039;-66
2021/05/26 01:38:11;;;;;;;77.18;8.15;;;;;;;;;;3538172;40;20541;-67
2021/05/26 01:40:38;;;;;;;91.53;9.55;;;;;;;;;;3537931;40;20038;-67
2021/05/26 01:43:06;;;;;;;87.95;9.00;;;;;;;;;;3532943;40;20039;-67
2021/05/26 01:45:33;;;;;;;61.47;6.70;;;;;;;;;;3536311;40;20875;-66
2021/05/26 01:48:02;;;;;;;72.80;7.60;;;;;;;;;;3538650;40;20090;-66
2021/05/26 01:50:28;;;;;;;29.45;3.63;;;;;;;;;;3536149;40;20027;-67
2021/05/26 01:52:58;;;;;;;11.07;2.80;;;;;;;;;;3536968;40;20035;-66
2021/05/26 01:55:24;;;;;;;5.90;1.60;;;;;;;;;;3540393;40;20160;-67
2021/05/26 01:57:50;;;;;;;5.43;1.33;;;;;;;;;;3539279;40;20045;-66
2021/05/26 02:00:22;;;;;;;2.38;1.00;;;;;;;;;;3535876;40;20049;-66
2021/05/26 02:02:52;;;;;;;1.90;0.82;;;;;;;;;;3538050;40;20436;-66
2021/05/26 02:05:19;;;;;;;3.50;1.38;;;;;;;;;;3536853;40;20050;-67
2021/05/26 02:07:45;;;;;;;1.40;1.00;;;;;;;;;;3540034;40;20046;-68
2021/05/26 02:10:14;;;;;;;2.53;1.10;;;9.80;99.90;;;;;;3535021;40;20038;-66
2021/05/26 02:12:43;;;;;;;11.07;3.95;;;;;;;;;;3533834;40;20050;-66
2021/05/26 02:15:12;;;;;;;57.65;7.30;;;;;;;;;;3537934;40;20054;-66
2021/05/26 02:17:40;;;;;;;37.80;5.22;;;;;;;;;;3537022;40;20102;-68
2021/05/26 02:20:08;;;;;;;46.90;6.10;;;;;;;;;;3536742;40;20072;-68
2021/05/26 02:22:34;;;;;;;45.88;5.55;;;;;;;;;;3539530;40;20086;-67
2021/05/26 02:25:02;;;;;;;2.80;1.10;;;;;;;;;;3536224;40;20081;-67
2021/05/26 02:27:29;;;;;;;38.17;4.80;;;;;;;;;;3538969;40;20104;-68
2021/05/26 02:29:55;;;;;;;54.53;6.82;;;;;;;;;;3537600;40;20340;-68
2021/05/26 02:32:24;;;;;;;47.05;6.13;;;;;;;;;;3536046;40;20405;-67
2021/05/26 02:34:50;;;;;;;36.47;4.70;;;;;;;;;;3536527;40;20444;-68
2021/05/26 02:37:17;;;;;;;60.85;6.90;;;;;;;;;;3539224;40;20034;-67
2021/05/26 02:39:43;;;;;;;76.55;9.35;;;;;;;;;;3538028;40;20045;-69
2021/05/26 02:42:10;;;;;;;55.50;6.85;;;;;;;;;;3537418;40;20043;-69
2021/05/26 02:44:36;;;;;;;56.80;6.60;;;;;;;;;;3539156;40;20064;-67
2021/05/26 02:47:02;;;;;;;52.80;6.38;;;;;;;;;;3534622;40;20478;-67
2021/05/26 02:49:29;;;;;;;58.13;6.38;;;;;;;;;;3534122;40;20065;-67
2021/05/26 02:51:55;;;;;;;72.07;7.75;;;;;;;;;;3536395;40;20038;-67
2021/05/26 02:54:22;;;;;;;70.43;7.43;;;;;;;;;;3535678;40;20763;-67
2021/05/26 02:56:49;;;;;;;75.38;7.60;;;;;;;;;;3535707;40;20046;-67
2021/05/26 02:59:40;;;;;;;98.68;10.55;;;;;;;;;;3539198;40;20041;-69
2021/05/26 03:02:39;;;;;;;62.75;7.00;;;;;;;;;;3536211;40;20051;-67
2021/05/26 03:05:09;;;;;;;76.32;8.02;;;;;;;;;;3536605;40;20042;-66
2021/05/26 03:07:35;;;;;;;84.72;8.75;;;;;;;;;;3538158;40;20487;-69
2021/05/26 03:10:04;;;;;;;70.78;7.50;;;;;;;;;;3538607;40;20715;-67
2021/05/26 03:12:30;;;;;;;79.85;7.95;;;;;;;;;;3542772;40;20046;-67
2021/05/26 03:15:00;;;;;;;80.88;12.07;;;;;;;;;;3536586;40;20101;-68
2021/05/26 03:17:30;;;;;;;58.50;7.25;;;;;;;;;;3538741;40;20148;-66
2021/05/26 03:19:59;;;;;;;66.47;7.45;;;;;;;;;;3538757;40;20108;-67
2021/05/26 03:22:34;;;;;;;76.45;7.93;;;;;;;;;;3541748;40;20041;-67
2021/05/26 03:25:19;;;;;;;78.70;8.20;;;;;;;;;;3535472;40;20521;-67
2021/05/26 03:27:54;;;;;;;98.87;9.87;;;;;;;;;;3539994;40;20038;-67
2021/05/26 03:30:20;;;;;;;114.75;11.38;;;;;;;;;;3538324;40;20293;-67
2021/05/26 03:32:46;;;;;;;80.60;8.68;;;;;;;;;;3538022;40;20084;-67
2021/05/26 03:35:14;;;;;;;98.53;9.88;;;;;;;;;;3537423;40;20631;-68
2021/05/26 03:37:40;;;;;;;82.35;8.32;;;;;;;;;;3542217;40;20321;-67
2021/05/26 03:40:11;;;;;;;79.38;8.38;;;;;;;;;;3540968;40;20043;-68
2021/05/26 03:42:39;;;;;;;96.18;9.77;;;;;;;;;;3539681;40;20042;-67
2021/05/26 03:45:08;;;;;;;79.45;8.63;;;;;;;;;;3536857;40;20046;-67
2021/05/26 03:47:34;;;;;;;62.80;6.85;;;;;;;;;;3537028;40;20085;-67
2021/05/26 03:50:03;;;;;;;74.13;7.68;;;;;;;;;;3537436;40;20039;-67
2021/05/26 03:52:32;;;;;;;97.03;9.65;;;;;;;;;;3538270;40;20107;-68
2021/05/26 03:54:59;;;;;;;81.25;8.45;;;;;;;;;;3540873;40;20035;-68
2021/05/26 03:57:25;;;;;;;79.60;8.38;;;;;;;;;;3537719;40;20141;-68
2021/05/26 03:59:52;;;;;;;124.25;12.90;;;;;;;;;;3537662;40;20031;-68
2021/05/26 04:02:18;;;;;;;89.25;8.98;;;;;;;;;;3534126;40;20098;-68
2021/05/26 04:04:44;;;;;;;110.82;10.93;;;;;;;;;;3540866;40;20046;-67
2021/05/26 04:07:12;;;;;;;94.35;9.77;;;;;;;;;;3538608;40;20061;-68
2021/05/26 04:09:38;;;;;;;107.25;11.27;;;;;;;;;;3536530;40;20031;-68
2021/05/26 04:12:05;;;;;;;100.28;10.13;;;;;;;;;;3534859;40;20303;-67
2021/05/26 04:14:49;;;;;;;72.75;8.50;;;;;;;;;;3535100;40;20137;-66
2021/05/26 04:17:35;;;;;;;67.13;7.10;;;;;;;;;;3534493;40;20046;-67
2021/05/26 04:20:08;;;;;;;70.20;7.38;;;;;;;;;;3537935;40;20038;-68
2021/05/26 04:22:35;;;;;;;105.13;10.73;;;;;;;;;;3536811;40;20047;-68
2021/05/26 04:25:01;;;;;;;95.07;9.93;;;;;;;;;;3537210;40;20085;-67
2021/05/26 04:27:28;;;;;;;75.47;7.95;;;;;;;;;;3536718;40;20033;-68
2021/05/26 04:29:55;;;;;;;77.97;8.23;;;;;;;;;;3547035;40;20061;-66
2021/05/26 04:32:21;;;;;;;75.18;7.95;;;;;;;;;;3539534;40;20050;-68
2021/05/26 04:34:48;;;;;;;83.93;8.85;;;;;;;;;;3538506;40;20035;-68
2021/05/26 04:37:16;;;;;;;51.80;6.10;;;;;;;;;;3540743;40;20034;-68
2021/05/26 04:39:42;;;;;;;78.75;8.65;;;;;;;;;;3535685;40;20039;-68
2021/05/26 04:42:08;;;;;;;68.97;7.72;;;;;;;;;;3537558;40;20050;-67
2021/05/26 04:44:34;;;;;;;78.60;8.20;;;;;;;;;;3538760;40;20136;-67
2021/05/26 04:47:01;;;;;;;88.22;9.15;;;;;;;;;;3538332;40;20133;-67
2021/05/26 04:49:27;;;;;;;79.43;9.25;;;;;;;;;;3539922;40;20027;-67
2021/05/26 04:51:53;;;;;;;82.47;8.75;;;;;;;;;;3533921;40;20031;-68
2021/05/26 04:54:20;;;;;;;73.22;8.05;;;;;;;;;;3541674;40;20100;-67
2021/05/26 04:56:47;;;;;;;77.45;8.60;;;;;;;;;;3535058;40;20134;-67
2021/05/26 04:59:13;;;;;;;83.88;8.90;;;;;;;;;;3535317;40;20050;-67
2021/05/26 05:01:39;;;;;;;58.58;6.97;;;;;;;;;;3534841;40;20092;-67
2021/05/26 05:04:06;;;;;;;96.60;9.95;;;;;;;;;;3536282;40;20148;-68
2021/05/26 05:06:32;;;;;;;99.55;9.80;;;;;;;;;;3538567;40;20030;-67
2021/05/26 05:08:58;;;;;;;85.45;8.27;;;;;;;;;;3536099;40;20042;-67
2021/05/26 05:11:25;;;;;;;34.60;4.80;;;;;;;;;;3537372;40;20026;-67
2021/05/26 05:13:51;;;;;;;56.88;6.40;;;;;;;;;;3537545;40;20052;-67
2021/05/26 05:16:17;;;;;;;84.30;8.75;;;;;;;;;;3537051;40;20042;-67
2021/05/26 05:18:43;;;;;;;90.03;9.32;;;;;;;;;;3535219;40;20150;-67
2021/05/26 05:21:09;;;;;;;85.90;9.07;;;;;;;;;;3535945;40;20376;-67
2021/05/26 05:23:36;;;;;;;83.38;8.93;;;;;;;;;;3537813;40;20031;-66
2021/05/26 05:26:02;;;;;;;91.90;10.38;;;;;;;;;;3537381;40;20079;-67
2021/05/26 05:28:28;;;;;;;102.05;10.48;;;;;;;;;;3534870;40;20388;-67
2021/05/26 05:30:54;;;;;;;98.53;10.38;;;;;;;;;;3535939;40;20035;-66
2021/05/26 05:33:20;;;;;;;85.82;9.23;;;;;;;;;;3538317;40;20031;-67
2021/05/26 05:35:46;;;;;;;86.18;9.70;;;;;;;;;;3537720;40;20094;-67
2021/05/26 05:38:12;;;;;;;298.27;41.22;;;;;;;;;;3535056;40;20075;-67
2021/05/26 05:40:38;;;;;;;64.95;7.70;;;;;;;;;;3537356;40;20455;-71
2021/05/26 05:43:05;;;;;;;95.47;9.93;;;;;;;;;;3533047;40;20023;-71
2021/05/26 05:45:31;;;;;;;67.07;8.20;;;;;;;;;;3539974;40;20046;-72
2021/05/26 05:47:57;;;;;;;45.28;6.88;;;;;;;;;;3536939;40;20034;-73
2021/05/26 05:50:23;;;;;;;44.13;7.05;;;;;;;;;;3536877;40;20067;-71
2021/05/26 05:52:49;;;;;;;60.53;7.57;;;;;;;;;;3536587;40;20035;-75
2021/05/26 05:55:16;;;;;;;80.35;8.85;;;;;;;;;;3541293;40;20026;-72
2021/05/26 05:57:42;;;;;;;81.32;9.68;;;;;;;;;;3538410;40;20042;-73
2021/05/26 06:00:09;;;;;;;82.63;8.75;;;;;;;;;;3536490;40;20143;-74
2021/05/26 06:02:43;;;;;;;84.63;9.17;;;;;;;;;;3536495;40;20065;-73
2021/05/26 06:05:12;;;;;;;76.68;8.20;;;;;;;;;;3540377;40;20538;-74
2021/05/26 06:07:38;;;;;;;67.90;7.80;;;;;;;;;;3540705;40;20042;-73
2021/05/26 06:10:04;;;;;;;77.25;8.55;;;;;;;;;;3536131;40;20079;-73
2021/05/26 06:12:31;;;;;;;75.72;8.48;;;;;;;;;;3536229;40;20953;-73
2021/05/26 06:14:57;;;;;;;91.30;9.50;;;;;;;;;;3536982;40;20102;-73
2021/05/26 06:17:23;;;;;;;76.20;8.27;;;;;;;;;;3538369;40;20061;-73
2021/05/26 06:19:49;;;;;;;140.45;15.68;;;;;;;;;;3532415;40;20495;-76
2021/05/26 06:22:15;;;;;;;74.13;8.63;;;;;;;;;;3533347;40;20046;-72
2021/05/26 06:24:42;;;;;;;107.40;11.13;;;;;;;;;;3534932;40;20136;-73
2021/05/26 06:27:08;;;;;;;79.55;8.48;;;;;;;;;;3536362;40;20031;-73
2021/05/26 06:29:34;;;;;;;101.82;10.80;;;;;;;;;;3535315;40;20030;-73
2021/05/26 06:32:00;;;;;;;74.53;8.32;;;;;;;;;;3537242;40;20304;-73
2021/05/26 06:34:26;;;;;;;103.45;10.07;;;;;;;;;;3539671;40;20128;-73
2021/05/26 06:36:52;;;;;;;108.65;11.57;;;;;;;;;;3535631;40;20643;-73
2021/05/26 06:39:18;;;;;;;89.20;9.68;;;;;;;;;;3536664;40;20058;-73
2021/05/26 06:41:45;;;;;;;81.07;9.15;;;;;;;;;;3538806;40;20034;-73
2021/05/26 06:44:11;;;;;;;90.07;10.50;;;;;;;;;;3542089;40;20042;-68
2021/05/26 06:46:38;;;;;;;77.03;9.80;;;;;;;;;;3541306;40;20289;-60
2021/05/26 06:49:04;;;;;;;70.53;8.10;;;;;;;;;;3539943;40;20051;-61
2021/05/26 06:51:31;;;;;;;79.68;9.32;;;;;;;;;;3538214;40;20027;-61
2021/05/26 06:53:56;;;;;;;9.55;2.03;;;13.50;99.90;;;;;;3539402;40;20090;-61
2021/05/26 06:56:22;;;;;;;9.20;3.67;;;13.70;99.90;;;;;;3541617;40;20053;-60
2021/05/26 06:58:48;;;;;;;16.58;5.63;;;14.50;99.90;;;;;;3542786;40;20593;-61
2021/05/26 07:01:14;;;;;;;22.77;12.23;;;;;;;;;;3540690;40;20054;-61
2021/05/26 07:03:40;;;;;;;6.57;1.48;;;14.60;99.90;;;;;;3538319;40;20113;-61
2021/05/26 07:06:06;;;;;;;9.73;2.83;;;;;;;;;;3536252;40;20369;-61
2021/05/26 07:08:32;;;;;;;6.97;2.00;;;;;;;;;;3534235;40;20117;-60
2021/05/26 07:10:58;;;;;;;8.45;1.80;;;;;;;;;;3532901;40;20035;-60
2021/05/26 07:13:24;;;;;;;5.90;1.50;;;15.00;99.90;;;;;;3535129;40;20102;-61
2021/05/26 07:15:50;;;;;;;6.43;2.33;;;;;;;;;;3536058;40;20039;-60
2021/05/26 07:18:16;;;;;;;2.75;1.33;;;;;;;;;;3537991;40;20105;-61
2021/05/26 07:20:44;;;;;;;7.47;1.52;;;;;;;;;;3533664;40;20688;-61
2021/05/26 07:23:10;;;;;;;15.20;2.70;;;14.10;99.90;;;;;;3532763;40;20487;-60
2021/05/26 07:25:37;;;;;;;4.70;1.35;;;;;;;;;;3534908;40;20037;-59
2021/05/26 07:28:04;;;;;;;11.43;1.80;;;;;;;;;;3536992;40;20031;-59
2021/05/26 07:30:30;;;;;;;2.83;1.45;;;;;;;;;;3538532;40;20601;-60
2021/05/26 07:32:56;;;;;;;5.97;1.60;;;;;;;;;;3540831;40;20068;-61
2021/05/26 07:35:22;;;;;;;5.35;1.50;;;;;;;;;;3539679;40;20055;-61
2021/05/26 07:37:48;;;;;;;7.05;1.70;;;15.00;99.90;;;;;;3534259;40;20183;-61
2021/05/26 07:40:14;;;;;;;3.20;1.35;;;15.00;99.40;;;;;;3536068;40;20480;-61
2021/05/26 07:42:41;;;;;;;4.70;1.30;;;;;;;;;;3538402;40;20317;-59
2021/05/26 07:45:07;;;;;;;5.32;1.50;;;14.70;99.90;;;;;;3539942;40;20038;-61
2021/05/26 07:47:34;;;;;;;4.30;1.52;;;14.90;99.40;;;;;;3542117;40;20050;-61
2021/05/26 07:50:01;;;;;;;2.85;1.35;;;;;;;;;;3540504;40;20031;-61
2021/05/26 07:52:29;;;;;;;5.32;1.35;;;;;;;;;;3538002;40;20069;-61
2021/05/26 07:54:55;;;;;;;5.10;1.50;;;;;;;;;;3538038;40;20050;-61
2021/05/26 07:57:21;;;;;;;4.50;2.00;;;15.70;99.90;;;;;;3539118;40;20144;-61
2021/05/26 07:59:47;;;;;;;5.32;1.30;;;;;;;;;;3541087;40;20429;-61
2021/05/26 08:02:13;;;;;;;3.58;1.10;;;15.10;99.90;;;;;;3540090;40;20049;-61
2021/05/26 08:04:39;;;;;;;3.78;1.30;;;14.30;99.90;;;;;;3534660;40;20804;-61
2021/05/26 08:07:08;;;;;;;6.50;1.45;;;15.30;99.90;;;;;;3537529;40;20050;-61
2021/05/26 08:09:34;;;;;;;5.97;1.27;;;;;;;;;;3538992;40;20376;-61
2021/05/26 08:12:00;;;;;;;5.90;1.60;;;;;;;;;;3540567;40;20049;-61
2021/05/26 08:14:26;;;;;;;4.70;1.30;;;;;;;;;;3515484;40;1059383;-62
2021/05/26 08:16:52;;;;;;;5.10;1.23;;;;;;;;;;3539740;40;20050;-61
2021/05/26 08:19:18;;;;;;;2.88;1.52;;;15.10;96.90;;;;;;3537992;40;20039;-61
2021/05/26 08:21:44;;;;;;;5.78;1.40;;;;;;;;;;3535214;40;20035;-61
2021/05/26 08:24:12;;;;;;;4.20;1.20;;;15.10;97.60;;;;;;3534122;40;20043;-61
2021/05/26 08:26:38;;;;;;;7.43;1.42;;;;;;;;;;3534052;40;20440;-61
2021/05/26 08:29:04;;;;;;;5.38;1.55;;;15.50;99.30;;;;;;3533946;40;20754;-61
2021/05/26 08:31:31;;;;;;;1.90;0.88;;;;;;;;;;3537819;40;20045;-61
2021/05/26 08:33:57;;;;;;;2.28;1.10;;;;;;;;;;3539205;40;20127;-61
2021/05/26 08:36:23;;;;;;;4.25;1.45;;;;;;;;;;3536989;40;20039;-61
2021/05/26 08:38:49;;;;;;;2.78;1.10;;;;;;;;;;3533763;40;20082;-61
2021/05/26 08:41:19;;;;;;;9.15;1.23;;;;;;;;;;3534498;40;20053;-61
2021/05/26 08:43:44;;;;;;;12.75;1.30;;;15.70;99.90;;;;;;3537574;40;20289;-61
2021/05/26 08:46:10;;;;;;;4.25;1.17;;;14.70;99.90;;;;;;3539315;40;20133;-61
2021/05/26 08:48:37;;;;;;;9.10;1.70;;;;;;;;;;3540626;40;20129;-61
2021/05/26 08:51:06;;;;;;;5.55;1.48;;;;;;;;;;3534444;40;20042;-61
2021/05/26 08:53:33;;;;;;;4.63;1.40;;;15.40;99.20;;;;;;3534945;40;20038;-63
2021/05/26 08:55:58;;;;;;;8.00;2.13;;;15.60;99.00;;;;;;3537287;40;20046;-61
2021/05/26 08:58:24;;;;;;;3.53;1.17;;;;;;;;;;3538535;40;20045;-61
2021/05/26 09:00:50;;;;;;;2.53;1.25;;;;;;;;;;3540366;40;20045;-61
2021/05/26 09:03:16;;;;;;;4.00;1.17;;;;;;;;;;3541980;40;20102;-61
2021/05/26 09:05:43;;;;;;;3.10;1.20;;;;;;;;;;3539898;40;20041;-61
2021/05/26 09:08:22;;;;;;;6.35;1.48;;;;;;;;;;3538764;40;20596;-61
2021/05/26 09:10:59;;;;;;;10.48;2.72;;;14.50;99.90;;;;;;3538643;40;20416;-61
2021/05/26 09:13:34;;;;;;;3.17;1.17;;;15.10;98.00;;;;;;3539540;40;20042;-61
2021/05/26 09:16:22;;;;;;;4.55;1.10;;;15.30;97.30;;;;;;3541911;40;20042;-62
2021/05/26 09:18:57;;;;;;;5.63;1.05;;;15.10;98.00;;;;;;3540577;40;20654;-62
2021/05/26 09:21:42;;;;;;;2.30;0.90;;;16.00;99.90;;;;;;3536951;40;20058;-62
2021/05/26 09:24:20;;;;;;;4.35;1.60;;;16.80;96.50;;;;;;3539220;40;20096;-62
2021/05/26 09:27:00;;;;;;;22.63;11.30;;;16.80;94.30;;;;;;3540808;40;20132;-63
2021/05/26 09:29:29;;;;;;;8.05;1.52;;;16.10;96.20;;;;;;3532432;40;20046;-63
2021/05/26 09:32:13;;;;;;;6.57;1.23;;;16.30;94.70;;;;;;3534590;40;20450;-62
2021/05/26 09:34:42;;;;;;;3.47;1.30;;;16.30;94.10;;;;;;3536882;40;20050;-63
2021/05/26 09:37:12;;;;;;;5.53;2.03;;;16.90;94.90;;;;;;3538559;40;20796;-63
2021/05/26 09:40:00;;;;;;;4.13;1.27;;;16.20;95.40;;;;;;3540276;40;20126;-63
2021/05/26 09:42:26;;;;;;;6.40;1.17;;;;;;;;;;3540183;40;20050;-62
2021/05/26 09:45:12;;;;;;;6.60;1.50;;;15.50;96.50;;;;;;3538692;40;20059;-63
2021/05/26 09:47:43;;;;;;;3.63;1.00;;;;;;;;;;3536794;40;20051;-62
2021/05/26 09:50:24;;;;;;;10.40;1.20;;;;;;;;;;3537823;40;20142;-62
2021/05/26 09:52:50;;;;;;;4.85;1.17;;;;;;;;;;3532304;40;20043;-61
2021/05/26 09:55:23;;;;;;;5.00;1.10;;;;;;;;;;3532501;40;20035;-62
2021/05/26 09:57:51;;;;;;;11.43;1.52;;;;;;;;;;3534751;40;20053;-63
2021/05/26 10:00:18;;;;;;;6.35;1.58;;;14.50;99.90;;;;;;3536061;40;20321;-62
2021/05/26 10:02:44;;;;;;;3.25;1.38;;;14.30;99.90;;;;;;3538277;40;20034;-62
2021/05/26 10:05:11;;;;;;;4.85;1.30;;;13.80;99.90;;;;;;3540772;40;20100;-62
2021/05/26 10:07:57;;;;;;;3.22;1.00;;;13.70;99.90;;;;;;3539993;40;20891;-62
2021/05/26 10:10:27;;;;;;;6.50;1.33;;;13.80;99.90;;;;;;3539060;40;20071;-61
2021/05/26 10:13:11;;;;;;;6.55;1.25;;;14.50;99.90;;;;;;3535840;40;20400;-62
2021/05/26 10:15:37;;;;;;;6.78;1.63;;;;;;;;;;3539251;40;20042;-63
2021/05/26 10:18:03;;;;;;;5.78;1.33;;;15.70;99.40;;;;;;3541181;40;20049;-63
2021/05/26 10:20:33;;;;;;;6.70;2.25;;;17.00;99.50;;;;;;3538763;40;20510;-63
2021/05/26 10:23:01;;;;;;;3.90;1.30;;;17.20;96.50;;;;;;3537769;40;20136;-63
2021/05/26 10:25:28;;;;;;;7.55;1.45;;;16.30;98.00;;;;;;3536270;40;20129;-61
2021/05/26 10:27:55;;;;;;;4.75;1.40;;;;;;;;;;3533417;40;20042;-61
2021/05/26 10:30:26;;;;;;;4.22;1.10;;;;;;;;;;3531372;40;20046;-61
2021/05/26 10:32:54;;;;;;;8.82;1.38;;;16.70;96.00;;;;;;3532635;40;20046;-61
2021/05/26 10:35:24;;;;;;;7.03;1.33;;;16.50;95.80;;;;;;3533297;40;20361;-61
2021/05/26 10:38:06;;;;;;;5.78;1.40;;;16.50;96.20;;;;;;3535440;40;20062;-61
2021/05/26 10:40:33;;;;;;;5.22;1.77;;;;;;;;;;3533406;40;20044;-61
2021/05/26 10:43:11;;;;;;;3.97;1.67;;;;;;;;;;3534360;40;20043;-61
2021/05/26 10:45:37;;;;;;;4.10;0.80;;;;;;;;;;3533067;40;20037;-61
2021/05/26 10:48:04;;;;;;;4.13;1.10;;;;;;;;;;3535522;40;20432;-61
2021/05/26 10:50:45;;;;;;;4.35;1.30;;;17.50;91.50;;;;;;3536516;40;20045;-61
2021/05/26 10:53:14;;;;;;;8.20;1.42;;;17.60;91.40;;;;;;3538627;40;20038;-61
2021/05/26 10:55:47;;;;;;;1.88;1.10;;;18.10;91.00;;;;;;3540826;40;20058;-61
2021/05/26 10:58:25;;;;;;;5.90;1.33;;;18.10;91.40;;;;;;3539749;40;20039;-61
2021/05/26 11:01:00;;;;;;;4.32;1.05;;;18.20;93.60;;;;;;3537033;40;20098;-61
2021/05/26 11:03:36;;;;;;;1.90;0.90;;;;;;;;;;3534460;40;20050;-61
2021/05/26 11:06:06;;;;;;;2.17;0.82;;;;;;;;;;3534227;40;20045;-62
2021/05/26 11:08:35;;;;;;;4.80;1.27;;;16.70;92.90;;;;;;3532864;40;20051;-61
2021/05/26 11:11:23;;;;;;;3.08;0.80;;;16.20;93.80;;;;;;3533946;40;20042;-61
2021/05/26 11:14:01;;;;;;;2.92;0.82;;;16.30;94.60;;;;;;3537349;40;20049;-61
2021/05/26 11:16:54;;;;;;;3.22;1.17;;;16.60;95.00;;;;;;3538041;40;20773;-61
2021/05/26 11:19:24;;;;;;;3.08;0.85;;;17.30;93.40;;;;;;3540200;40;20031;-61
2021/05/26 11:22:06;;;;;;;5.05;1.05;;;;;;;;;;3540550;40;20416;-61
2021/05/26 11:24:39;;;;;;;5.35;1.00;;;16.70;92.60;;;;;;3539516;40;20030;-60
2021/05/26 11:27:18;;;;;;;3.42;0.90;;;16.40;95.70;;;;;;3537349;40;20030;-61
2021/05/26 11:29:44;;;;;;;2.92;0.80;;;17.10;93.70;;;;;;3538368;40;20413;-64
2021/05/26 11:32:11;;;;;;;2.83;0.70;;;17.90;92.50;;;;;;3533724;40;20046;-61
2021/05/26 11:34:39;;;;;;;1.73;0.70;;;17.40;91.00;;;;;;3532539;40;20050;-61
2021/05/26 11:37:05;;;;;;;2.83;0.70;;;17.50;91.80;;;;;;3539896;40;20331;-61
2021/05/26 11:39:33;;;;;;;5.93;1.08;;;18.20;90.80;;;;;;3536658;40;20043;-61
2021/05/26 11:42:08;;;;;;;1.50;0.47;;;;;;;;;;3537795;40;20120;-62
2021/05/26 11:44:35;;;;;;;3.50;0.57;;;;;;;;;;3541390;40;20057;-61
2021/05/26 11:47:02;;;;;;;0.93;0.50;;;;;;;;;;3542461;40;20597;-61
2021/05/26 11:49:28;;;;;;;2.08;0.57;;;;;;;;;;3541447;40;20924;-62
2021/05/26 11:52:04;;;;;;;3.50;0.43;;;18.80;84.10;;;;;;3537375;40;20402;-64
2021/05/26 11:54:31;;;;;;;1.67;0.55;;;18.40;86.50;;;;;;3539527;40;20653;-61
2021/05/26 11:57:03;;;;;;;0.65;0.43;;;19.00;85.60;;;;;;3534487;40;20042;-62
2021/05/26 11:59:30;;;;;;;1.33;0.50;;;;;;;;;;3533741;40;20089;-62
2021/05/26 12:01:56;;;;;;;3.38;0.90;;;20.20;74.90;;;;;;3535410;40;20701;-61
2021/05/26 12:04:23;;;;;;;1.77;0.50;;;20.40;76.60;;;;;;3537350;40;20032;-62
2021/05/26 12:06:50;;;;;;;2.17;0.57;;;;;;;;;;3539323;40;20022;-61
2021/05/26 12:09:26;;;;;;;0.55;0.40;;;20.60;69.70;;;;;;3540359;40;20144;-60
2021/05/26 12:11:52;;;;;;;1.70;0.60;;;;;;;;;;3541791;40;20055;-60
2021/05/26 12:14:25;;;;;;;1.10;0.50;;;;;;;;;;3540867;40;20038;-60
2021/05/26 12:16:52;;;;;;;1.25;0.40;;;;;;;;;;3537115;40;20054;-60
2021/05/26 12:19:18;;;;;;;1.95;0.30;;;;;;;;;;3538914;40;20041;-59
2021/05/26 12:21:47;;;;;;;3.10;0.30;;;;;;;;;;3540562;40;20038;-60
2021/05/26 12:24:18;;;;;;;1.20;0.30;;;;;;;;;;3542018;40;20039;-62
2021/05/26 12:26:47;;;;;;;3.90;1.95;;;19.40;75.40;;;;;;3539992;40;20053;-63
2021/05/26 12:29:13;;;;;;;10.25;4.47;;;;;;;;;;3537327;40;20031;-62
2021/05/26 12:31:41;;;;;;;13.05;2.35;;;19.00;78.60;;;;;;3538381;40;20031;-62
2021/05/26 12:34:17;;;;;;;1.05;0.60;;;;;;;;;;3534354;40;20034;-60
2021/05/26 12:36:47;;;;;;;1.13;0.30;;;;;;;;;;3533427;40;20512;-60
2021/05/26 12:39:13;;;;;;;0.45;0.32;;;;;;;;;;3535276;40;20555;-61
2021/05/26 12:41:39;;;;;;;0.52;0.30;;;17.10;90.10;;;;;;3536430;40;20046;-60
2021/05/26 12:44:08;;;;;;;0.65;0.20;;;18.30;85.10;;;;;;3538414;40;20046;-59
2021/05/26 12:46:45;;;;;;;0.82;0.50;;;18.30;92.70;;;;;;3536801;40;20035;-60
2021/05/26 12:49:34;;;;;;;3.25;0.80;;;;;;;;;;3532984;40;20678;-60
2021/05/26 12:52:00;;;;;;;1.55;0.45;;;;;;;;;;3539958;40;20440;-60
2021/05/26 12:54:26;;;;;;;0.90;0.28;;;20.70;78.60;;;;;;3538380;40;20388;-60
2021/05/26 12:57:12;;;;;;;3.20;0.17;;;21.20;74.10;;;;;;3536208;40;20043;-60
2021/05/26 12:59:41;;;;;;;4.85;0.40;;;21.00;65.30;;;;;;3533799;40;20107;-59
2021/05/26 13:02:11;;;;;;;1.13;0.32;;;20.70;71.50;;;;;;3532482;40;20050;-61
2021/05/26 13:04:50;;;;;;;0.85;0.30;;;22.20;68.20;;;;;;3536297;40;20664;-60
2021/05/26 13:07:23;;;;;;;0.35;0.10;;;22.50;62.90;;;;;;3537171;40;20051;-60
2021/05/26 13:09:49;;;;;;;0.20;0.20;;;;;;;;;;3534814;40;20035;-60
2021/05/26 13:12:31;;;;;;;1.63;0.22;;;23.50;60.30;;;;;;3534464;40;20126;-61
2021/05/26 13:15:16;;;;;;;0.35;0.20;;;;;;;;;;3532786;40;20420;-60
2021/05/26 13:17:42;;;;;;;4.00;0.30;;;;;;;;;;3538839;40;20482;-61
2021/05/26 13:20:33;;;;;;;0.20;0.15;;;22.50;58.60;;;;;;3536691;40;20136;-61
2021/05/26 13:22:59;;;;;;;3.38;0.20;;;20.80;63.80;;;;;;3536011;40;20035;-60
2021/05/26 13:25:27;;;;;;;0.20;0.20;;;;;;;;;;3539566;40;20057;-62
2021/05/26 13:27:53;;;;;;;0.77;0.38;;;;;;;;;;3540748;40;20046;-60
2021/05/26 13:30:27;;;;;;;4.60;2.30;;;17.90;81.70;;;;;;3538268;40;20054;-60
2021/05/26 13:32:54;;;;;;;1.20;0.40;;;;;;;;;;3536729;40;20053;-60
2021/05/26 13:35:20;;;;;;;2.17;0.30;;;;;;;;;;3535767;40;20050;-60
2021/05/26 13:37:46;;;;;;;5.13;2.35;;;;;;;;;;3532838;40;20055;-60
2021/05/26 13:40:13;;;;;;;1.45;0.80;;;;;;;;;;3532656;40;20050;-60
2021/05/26 13:42:39;;;;;;;1.08;0.60;;;;;;;;;;3534592;40;20041;-60
2021/05/26 13:45:07;;;;;;;1.73;0.57;;;17.10;90.70;;;;;;3535462;40;20030;-60
2021/05/26 13:47:33;;;;;;;0.93;0.52;;;16.90;99.90;;;;;;3539144;40;20035;-60
2021/05/26 13:49:59;;;;;;;1.77;0.50;;;;;;;;;;3539497;40;20050;-62
2021/05/26 13:52:26;;;;;;;2.88;0.60;;;;;;;;;;3540028;40;20031;-62
2021/05/26 13:54:52;;;;;;;0.30;0.30;;;;;;;;;;3538719;40;20035;-62
2021/05/26 13:57:18;;;;;;;3.60;0.70;;;;;;;;;;3535774;40;20039;-62
2021/05/26 13:59:44;;;;;;;0.63;0.38;;;;;;;;;;3537323;40;20026;-62
2021/05/26 14:02:10;;;;;;;0.93;0.30;;;;;;;;;;3539876;40;20312;-62
2021/05/26 14:04:36;;;;;;;3.00;0.90;;;;;;;;;;3541800;40;20034;-62
2021/05/26 14:07:02;;;;;;;2.50;0.52;;;;;;;;;;3539964;40;20051;-62
2021/05/26 14:09:28;;;;;;;1.02;0.40;;;;;;;;;;3536666;40;20368;-62